sensor_id;sensor_type;location;lat;lon;timestamp;temperature;humidity
8676;DHT22;4375;52.486;13.424;2023-07-02T00:01:46;19.00;99.90
8676;DHT22;4375;52.486;13.424;2023-07-02T00:04:13;19.00;99.90
8676;DHT22;4375;52.486;13.424;2023-07-02T00:06:48;19.00;99.90
8676;DHT22;4375;52.486;13.424;2023-07-02T00:09:14;19.00;99.90
8676;DHT22;4375;52.486;13.424;2023-07-02T00:11:42;18.90;99.90
8676;DHT22;4375;52.486;13.424;2023-07-02T00:14:09;18.90;99.90
8676;DHT22;4375;52.486;13.424;2023-07-02T00:16:39;18.90;99.90
8676;DHT22;4375;52.486;13.424;2023-07-02T00:19:05;18.80;99.90
8676;DHT22;4375;52.486;13.424;2023-07-02T00:21:31;18.90;99.90
8676;DHT22;4375;52.486;13.424;2023-07-02T00:23:58;18.80;99.90
8676;DHT22;4375;52.486;13.424;2023-07-02T00:26:25;18.80;99.90
8676;DHT22;4375;52.486;13.424;2023-07-02T00:28:52;18.80;99.90
8676;DHT22;4375;52.486;13.424;2023-07-02T00:31:18;18.80;99.90
8676;DHT22;4375;52.486;13.424;2023-07-02T00:33:43;18.70;99.90
8676;DHT22;4375;52.486;13.424;2023-07-02T00:36:09;18.70;99.90
8676;DHT22;4375;52.486;13.424;2023-07-02T00:38:44;18.70;99.90
8676;DHT22;4375;52.486;13.424;2023-07-02T00:41:10;18.80;99.90
8676;DHT22;4375;52.486;13.424;2023-07-02T00:43:36;18.80;99.90
8676;DHT22;4375;52.486;13.424;2023-07-02T00:46:02;18.80;99.90
8676;DHT22;4375;52.486;13.424;2023-07-02T00:48:29;18.80;99.90
8676;DHT22;4375;52.486;13.424;2023-07-02T00:50:55;18.80;99.90
8676;DHT22;4375;52.486;13.424;2023-07-02T00:53:22;18.70;99.90
8676;DHT22;4375;52.486;13.424;2023-07-02T00:55:47;18.70;99.90
8676;DHT22;4375;52.486;13.424;2023-07-02T00:58:13;18.60;99.90
8676;DHT22;4375;52.486;13.424;2023-07-02T01:00:42;18.60;99.90
8676;DHT22;4375;52.486;13.424;2023-07-02T01:03:07;18.60;99.90
8676;DHT22;4375;52.486;13.424;2023-07-02T01:05:33;18.60;99.90
8676;DHT22;4375;52.486;13.424;2023-07-02T01:08:05;18.60;99.90
8676;DHT22;4375;52.486;13.424;2023-07-02T01:10:31;18.60;99.90
8676;DHT22;4375;52.486;13.424;2023-07-02T01:13:06;18.50;99.90
8676;DHT22;4375;52.486;13.424;2023-07-02T01:15:34;18.50;99.90
8676;DHT22;4375;52.486;13.424;2023-07-02T01:18:00;18.60;99.90
8676;DHT22;4375;52.486;13.424;2023-07-02T01:20:26;18.60;99.90
8676;DHT22;4375;52.486;13.424;2023-07-02T01:22:57;18.60;99.90
8676;DHT22;4375;52.486;13.424;2023-07-02T01:25:27;18.50;99.90
8676;DHT22;4375;52.486;13.424;2023-07-02T01:27:53;18.50;99.90
8676;DHT22;4375;52.486;13.424;2023-07-02T01:30:20;18.40;99.90
8676;DHT22;4375;52.486;13.424;2023-07-02T01:32:46;18.40;99.90
8676;DHT22;4375;52.486;13.424;2023-07-02T01:35:12;18.40;99.90
8676;DHT22;4375;52.486;13.424;2023-07-02T01:37:37;18.50;99.90
8676;DHT22;4375;52.486;13.424;2023-07-02T01:40:04;18.50;99.90
8676;DHT22;4375;52.486;13.424;2023-07-02T01:42:33;18.50;99.90
8676;DHT22;4375;52.486;13.424;2023-07-02T01:44:59;18.50;99.90
8676;DHT22;4375;52.486;13.424;2023-07-02T01:47:25;18.60;99.90
8676;DHT22;4375;52.486;13.424;2023-07-02T01:49:51;18.60;99.90
8676;DHT22;4375;52.486;13.424;2023-07-02T01:52:17;18.60;99.90
8676;DHT22;4375;52.486;13.424;2023-07-02T01:54:43;18.60;99.90
8676;DHT22;4375;52.486;13.424;2023-07-02T01:57:10;18.50;99.90
8676;DHT22;4375;52.486;13.424;2023-07-02T01:59:35;18.50;99.90
8676;DHT22;4375;52.486;13.424;2023-07-02T02:02:01;18.40;99.90
8676;DHT22;4375;52.486;13.424;2023-07-02T02:04:27;18.40;99.90
8676;DHT22;4375;52.486;13.424;2023-07-02T02:06:52;18.50;99.90
8676;DHT22;4375;52.486;13.424;2023-07-02T02:09:18;18.50;99.90
8676;DHT22;4375;52.486;13.424;2023-07-02T02:11:48;18.40;99.90
8676;DHT22;4375;52.486;13.424;2023-07-02T02:14:14;18.40;99.90
8676;DHT22;4375;52.486;13.424;2023-07-02T02:16:39;18.40;99.90
8676;DHT22;4375;52.486;13.424;2023-07-02T02:19:05;18.30;99.90
8676;DHT22;4375;52.486;13.424;2023-07-02T02:21:31;18.30;99.90
8676;DHT22;4375;52.486;13.424;2023-07-02T02:23:56;18.30;99.90
8676;DHT22;4375;52.486;13.424;2023-07-02T02:26:23;18.40;99.90
8676;DHT22;4375;52.486;13.424;2023-07-02T02:28:50;18.40;99.90
8676;DHT22;4375;52.486;13.424;2023-07-02T02:31:16;18.40;99.90
8676;DHT22;4375;52.486;13.424;2023-07-02T02:33:42;18.30;99.90
8676;DHT22;4375;52.486;13.424;2023-07-02T02:36:08;18.30;99.90
8676;DHT22;4375;52.486;13.424;2023-07-02T02:38:34;18.30;99.90
8676;DHT22;4375;52.486;13.424;2023-07-02T02:41:00;18.30;99.90
8676;DHT22;4375;52.486;13.424;2023-07-02T02:43:27;18.10;99.90
8676;DHT22;4375;52.486;13.424;2023-07-02T02:45:52;18.20;99.90
8676;DHT22;4375;52.486;13.424;2023-07-02T02:48:18;18.10;99.90
8676;DHT22;4375;52.486;13.424;2023-07-02T02:50:44;18.10;99.90
8676;DHT22;4375;52.486;13.424;2023-07-02T02:53:10;18.10;99.90
8676;DHT22;4375;52.486;13.424;2023-07-02T02:55:37;18.20;99.90
8676;DHT22;4375;52.486;13.424;2023-07-02T02:58:03;18.20;99.90
8676;DHT22;4375;52.486;13.424;2023-07-02T03:00:28;18.20;99.90
8676;DHT22;4375;52.486;13.424;2023-07-02T03:02:54;18.10;99.90
8676;DHT22;4375;52.486;13.424;2023-07-02T03:05:21;18.20;99.90
8676;DHT22;4375;52.486;13.424;2023-07-02T03:07:47;18.20;99.90
8676;DHT22;4375;52.486;13.424;2023-07-02T03:10:12;18.20;99.90
8676;DHT22;4375;52.486;13.424;2023-07-02T03:12:38;18.10;99.90
8676;DHT22;4375;52.486;13.424;2023-07-02T03:15:04;18.10;99.90
8676;DHT22;4375;52.486;13.424;2023-07-02T03:17:30;18.20;99.90
8676;DHT22;4375;52.486;13.424;2023-07-02T03:19:55;18.10;99.90
8676;DHT22;4375;52.486;13.424;2023-07-02T03:22:21;18.30;99.90
8676;DHT22;4375;52.486;13.424;2023-07-02T03:24:47;18.30;99.90
8676;DHT22;4375;52.486;13.424;2023-07-02T03:27:12;18.20;99.90
8676;DHT22;4375;52.486;13.424;2023-07-02T03:29:38;18.20;99.90
8676;DHT22;4375;52.486;13.424;2023-07-02T03:32:04;18.00;99.90
8676;DHT22;4375;52.486;13.424;2023-07-02T03:34:30;18.10;99.90
8676;DHT22;4375;52.486;13.424;2023-07-02T03:36:55;18.20;99.90
8676;DHT22;4375;52.486;13.424;2023-07-02T03:39:21;18.20;99.90
8676;DHT22;4375;52.486;13.424;2023-07-02T03:41:47;18.10;99.90
8676;DHT22;4375;52.486;13.424;2023-07-02T03:44:12;18.10;99.90
8676;DHT22;4375;52.486;13.424;2023-07-02T03:46:38;18.00;99.90
8676;DHT22;4375;52.486;13.424;2023-07-02T03:49:04;18.00;99.90
8676;DHT22;4375;52.486;13.424;2023-07-02T03:51:30;18.10;99.90
8676;DHT22;4375;52.486;13.424;2023-07-02T03:53:56;18.10;99.90
8676;DHT22;4375;52.486;13.424;2023-07-02T03:56:21;18.00;99.90
8676;DHT22;4375;52.486;13.424;2023-07-02T03:58:47;18.10;99.90
8676;DHT22;4375;52.486;13.424;2023-07-02T04:01:13;18.20;99.90
8676;DHT22;4375;52.486;13.424;2023-07-02T04:03:38;18.20;99.90
8676;DHT22;4375;52.486;13.424;2023-07-02T04:06:04;18.20;99.90
8676;DHT22;4375;52.486;13.424;2023-07-02T04:08:33;18.20;99.90
8676;DHT22;4375;52.486;13.424;2023-07-02T04:10:59;18.20;99.90
8676;DHT22;4375;52.486;13.424;2023-07-02T04:13:25;18.20;99.90
8676;DHT22;4375;52.486;13.424;2023-07-02T04:15:51;18.10;99.90
8676;DHT22;4375;52.486;13.424;2023-07-02T04:18:16;18.10;99.90
8676;DHT22;4375;52.486;13.424;2023-07-02T04:20:42;18.20;99.90
8676;DHT22;4375;52.486;13.424;2023-07-02T04:23:08;18.10;99.90
8676;DHT22;4375;52.486;13.424;2023-07-02T04:25:33;18.10;99.90
8676;DHT22;4375;52.486;13.424;2023-07-02T04:27:59;18.20;99.90
8676;DHT22;4375;52.486;13.424;2023-07-02T04:30:25;18.20;99.90
8676;DHT22;4375;52.486;13.424;2023-07-02T04:32:51;18.30;99.90
8676;DHT22;4375;52.486;13.424;2023-07-02T04:35:17;18.40;99.90
8676;DHT22;4375;52.486;13.424;2023-07-02T04:37:43;18.30;99.90
8676;DHT22;4375;52.486;13.424;2023-07-02T04:40:09;18.40;99.90
8676;DHT22;4375;52.486;13.424;2023-07-02T04:42:36;18.50;99.90
8676;DHT22;4375;52.486;13.424;2023-07-02T04:45:07;18.40;99.90
8676;DHT22;4375;52.486;13.424;2023-07-02T04:47:34;18.40;99.90
8676;DHT22;4375;52.486;13.424;2023-07-02T04:50:00;18.60;99.90
8676;DHT22;4375;52.486;13.424;2023-07-02T04:52:26;18.60;99.90
8676;DHT22;4375;52.486;13.424;2023-07-02T04:54:51;18.70;99.90
8676;DHT22;4375;52.486;13.424;2023-07-02T04:57:17;18.60;99.90
8676;DHT22;4375;52.486;13.424;2023-07-02T04:59:43;18.70;99.90
8676;DHT22;4375;52.486;13.424;2023-07-02T05:02:09;18.70;99.90
8676;DHT22;4375;52.486;13.424;2023-07-02T05:04:35;18.70;99.90
8676;DHT22;4375;52.486;13.424;2023-07-02T05:07:01;18.70;99.90
8676;DHT22;4375;52.486;13.424;2023-07-02T05:09:26;18.70;99.90
8676;DHT22;4375;52.486;13.424;2023-07-02T05:11:52;18.70;99.90
8676;DHT22;4375;52.486;13.424;2023-07-02T05:14:18;18.80;99.90
8676;DHT22;4375;52.486;13.424;2023-07-02T05:16:43;18.90;99.90
8676;DHT22;4375;52.486;13.424;2023-07-02T05:19:09;18.80;99.90
8676;DHT22;4375;52.486;13.424;2023-07-02T05:21:35;18.80;99.90
8676;DHT22;4375;52.486;13.424;2023-07-02T05:24:00;18.60;99.90
8676;DHT22;4375;52.486;13.424;2023-07-02T05:26:26;18.80;99.90
8676;DHT22;4375;52.486;13.424;2023-07-02T05:28:52;19.00;99.90
8676;DHT22;4375;52.486;13.424;2023-07-02T05:31:18;19.00;99.90
8676;DHT22;4375;52.486;13.424;2023-07-02T05:33:44;19.00;99.90
8676;DHT22;4375;52.486;13.424;2023-07-02T05:36:09;18.90;99.90
8676;DHT22;4375;52.486;13.424;2023-07-02T05:38:35;19.00;99.90
8676;DHT22;4375;52.486;13.424;2023-07-02T05:41:02;19.00;99.90
8676;DHT22;4375;52.486;13.424;2023-07-02T05:43:28;19.10;99.90
8676;DHT22;4375;52.486;13.424;2023-07-02T05:45:54;19.30;99.90
8676;DHT22;4375;52.486;13.424;2023-07-02T05:48:20;19.50;99.90
8676;DHT22;4375;52.486;13.424;2023-07-02T05:50:45;19.40;99.90
8676;DHT22;4375;52.486;13.424;2023-07-02T05:53:11;19.70;99.90
8676;DHT22;4375;52.486;13.424;2023-07-02T05:55:37;19.60;99.90
8676;DHT22;4375;52.486;13.424;2023-07-02T05:58:03;19.60;99.90
8676;DHT22;4375;52.486;13.424;2023-07-02T06:00:31;19.40;99.90
8676;DHT22;4375;52.486;13.424;2023-07-02T06:02:57;19.20;99.90
8676;DHT22;4375;52.486;13.424;2023-07-02T06:05:22;19.20;99.90
8676;DHT22;4375;52.486;13.424;2023-07-02T06:07:48;19.20;99.90
8676;DHT22;4375;52.486;13.424;2023-07-02T06:10:14;19.30;99.90
8676;DHT22;4375;52.486;13.424;2023-07-02T06:12:40;19.20;99.90
8676;DHT22;4375;52.486;13.424;2023-07-02T06:15:05;19.30;99.90
8676;DHT22;4375;52.486;13.424;2023-07-02T06:17:31;19.30;99.90
8676;DHT22;4375;52.486;13.424;2023-07-02T06:19:57;19.40;99.90
8676;DHT22;4375;52.486;13.424;2023-07-02T06:22:23;19.70;99.90
8676;DHT22;4375;52.486;13.424;2023-07-02T06:24:49;20.10;99.90
8676;DHT22;4375;52.486;13.424;2023-07-02T06:27:14;20.20;99.90
8676;DHT22;4375;52.486;13.424;2023-07-02T06:29:40;20.50;99.90
8676;DHT22;4375;52.486;13.424;2023-07-02T06:32:06;20.40;99.90
8676;DHT22;4375;52.486;13.424;2023-07-02T06:34:32;20.30;99.90
8676;DHT22;4375;52.486;13.424;2023-07-02T06:36:57;20.00;99.90
8676;DHT22;4375;52.486;13.424;2023-07-02T06:39:23;20.00;99.90
8676;DHT22;4375;52.486;13.424;2023-07-02T06:41:49;20.30;99.90
8676;DHT22;4375;52.486;13.424;2023-07-02T06:44:14;20.60;99.90
8676;DHT22;4375;52.486;13.424;2023-07-02T06:46:40;20.80;99.90
8676;DHT22;4375;52.486;13.424;2023-07-02T06:49:06;20.40;99.90
8676;DHT22;4375;52.486;13.424;2023-07-02T06:51:31;20.40;99.90
8676;DHT22;4375;52.486;13.424;2023-07-02T06:53:59;20.60;99.90
8676;DHT22;4375;52.486;13.424;2023-07-02T06:56:25;20.70;99.90
8676;DHT22;4375;52.486;13.424;2023-07-02T06:58:51;20.60;99.90
8676;DHT22;4375;52.486;13.424;2023-07-02T07:01:16;21.00;99.90
8676;DHT22;4375;52.486;13.424;2023-07-02T07:03:42;21.50;99.90
8676;DHT22;4375;52.486;13.424;2023-07-02T07:06:07;21.50;99.90
8676;DHT22;4375;52.486;13.424;2023-07-02T07:08:36;21.60;99.90
8676;DHT22;4375;52.486;13.424;2023-07-02T07:11:02;21.70;99.90
8676;DHT22;4375;52.486;13.424;2023-07-02T07:13:27;21.80;99.90
8676;DHT22;4375;52.486;13.424;2023-07-02T07:15:53;21.70;99.90
8676;DHT22;4375;52.486;13.424;2023-07-02T07:18:19;21.70;99.90
8676;DHT22;4375;52.486;13.424;2023-07-02T07:20:44;21.40;99.90
8676;DHT22;4375;52.486;13.424;2023-07-02T07:23:10;21.60;99.90
8676;DHT22;4375;52.486;13.424;2023-07-02T07:25:36;21.80;99.90
8676;DHT22;4375;52.486;13.424;2023-07-02T07:28:01;22.20;99.90
8676;DHT22;4375;52.486;13.424;2023-07-02T07:30:27;22.20;99.90
8676;DHT22;4375;52.486;13.424;2023-07-02T07:32:53;22.80;99.90
8676;DHT22;4375;52.486;13.424;2023-07-02T07:35:21;24.60;99.90
8676;DHT22;4375;52.486;13.424;2023-07-02T07:37:47;25.80;99.90
8676;DHT22;4375;52.486;13.424;2023-07-02T07:40:14;26.40;99.90
8676;DHT22;4375;52.486;13.424;2023-07-02T07:42:41;26.90;99.90
8676;DHT22;4375;52.486;13.424;2023-07-02T07:45:08;26.90;99.90
8676;DHT22;4375;52.486;13.424;2023-07-02T07:47:34;26.00;99.90
8676;DHT22;4375;52.486;13.424;2023-07-02T07:50:00;24.90;99.90
8676;DHT22;4375;52.486;13.424;2023-07-02T07:52:25;23.50;99.90
8676;DHT22;4375;52.486;13.424;2023-07-02T07:54:51;23.00;99.90
8676;DHT22;4375;52.486;13.424;2023-07-02T07:57:17;22.60;99.90
8676;DHT22;4375;52.486;13.424;2023-07-02T07:59:42;21.70;99.90
8676;DHT22;4375;52.486;13.424;2023-07-02T08:02:08;21.50;99.90
8676;DHT22;4375;52.486;13.424;2023-07-02T08:04:34;21.40;99.90
8676;DHT22;4375;52.486;13.424;2023-07-02T08:07:00;21.20;99.90
8676;DHT22;4375;52.486;13.424;2023-07-02T08:09:25;20.80;99.90
8676;DHT22;4375;52.486;13.424;2023-07-02T08:11:51;20.60;99.90
8676;DHT22;4375;52.486;13.424;2023-07-02T08:14:17;20.40;99.90
8676;DHT22;4375;52.486;13.424;2023-07-02T08:16:45;20.40;99.90
8676;DHT22;4375;52.486;13.424;2023-07-02T08:19:11;20.40;99.90
8676;DHT22;4375;52.486;13.424;2023-07-02T08:21:37;20.30;99.90
8676;DHT22;4375;52.486;13.424;2023-07-02T08:24:03;20.10;99.90
8676;DHT22;4375;52.486;13.424;2023-07-02T08:26:29;20.10;99.90
8676;DHT22;4375;52.486;13.424;2023-07-02T08:28:55;20.10;99.90
8676;DHT22;4375;52.486;13.424;2023-07-02T08:31:20;19.90;99.90
8676;DHT22;4375;52.486;13.424;2023-07-02T08:33:46;19.90;99.90
8676;DHT22;4375;52.486;13.424;2023-07-02T08:36:11;19.80;99.90
8676;DHT22;4375;52.486;13.424;2023-07-02T08:38:39;20.00;99.90
8676;DHT22;4375;52.486;13.424;2023-07-02T08:41:07;20.20;99.90
8676;DHT22;4375;52.486;13.424;2023-07-02T08:43:34;20.00;99.90
8676;DHT22;4375;52.486;13.424;2023-07-02T08:46:01;19.90;99.90
8676;DHT22;4375;52.486;13.424;2023-07-02T08:48:27;19.90;99.90
8676;DHT22;4375;52.486;13.424;2023-07-02T08:50:57;19.90;99.90
8676;DHT22;4375;52.486;13.424;2023-07-02T08:53:23;20.10;99.90
8676;DHT22;4375;52.486;13.424;2023-07-02T08:55:55;20.00;99.90
8676;DHT22;4375;52.486;13.424;2023-07-02T08:58:21;19.70;99.90
8676;DHT22;4375;52.486;13.424;2023-07-02T09:01:13;19.60;99.90
8676;DHT22;4375;52.486;13.424;2023-07-02T09:03:40;19.70;99.90
8676;DHT22;4375;52.486;13.424;2023-07-02T09:06:10;19.80;99.90
8676;DHT22;4375;52.486;13.424;2023-07-02T09:08:37;19.80;99.90
8676;DHT22;4375;52.486;13.424;2023-07-02T09:11:10;19.80;99.90
8676;DHT22;4375;52.486;13.424;2023-07-02T09:13:49;19.80;99.90
8676;DHT22;4375;52.486;13.424;2023-07-02T09:16:26;20.00;99.90
8676;DHT22;4375;52.486;13.424;2023-07-02T09:19:03;20.40;99.90
8676;DHT22;4375;52.486;13.424;2023-07-02T09:21:42;20.60;99.90
8676;DHT22;4375;52.486;13.424;2023-07-02T09:26:46;20.80;99.90
8676;DHT22;4375;52.486;13.424;2023-07-02T09:29:30;20.80;99.90
8676;DHT22;4375;52.486;13.424;2023-07-02T09:32:03;21.10;99.90
8676;DHT22;4375;52.486;13.424;2023-07-02T09:34:30;21.10;99.90
8676;DHT22;4375;52.486;13.424;2023-07-02T09:36:57;21.40;99.90
8676;DHT22;4375;52.486;13.424;2023-07-02T09:39:31;21.60;99.90
8676;DHT22;4375;52.486;13.424;2023-07-02T09:41:59;22.00;99.90
8676;DHT22;4375;52.486;13.424;2023-07-02T09:44:33;21.80;99.90
8676;DHT22;4375;52.486;13.424;2023-07-02T09:47:08;22.30;99.90
8676;DHT22;4375;52.486;13.424;2023-07-02T09:49:36;22.70;99.90
8676;DHT22;4375;52.486;13.424;2023-07-02T09:52:10;22.80;99.90
8676;DHT22;4375;52.486;13.424;2023-07-02T09:54:37;22.80;99.90
8676;DHT22;4375;52.486;13.424;2023-07-02T09:57:03;23.10;99.90
8676;DHT22;4375;52.486;13.424;2023-07-02T09:59:30;23.10;99.90
8676;DHT22;4375;52.486;13.424;2023-07-02T10:01:56;23.40;99.90
8676;DHT22;4375;52.486;13.424;2023-07-02T10:04:22;23.20;99.90
8676;DHT22;4375;52.486;13.424;2023-07-02T10:09:18;24.20;99.90
8676;DHT22;4375;52.486;13.424;2023-07-02T10:11:44;24.50;99.90
8676;DHT22;4375;52.486;13.424;2023-07-02T10:14:11;24.40;99.90
8676;DHT22;4375;52.486;13.424;2023-07-02T10:16:53;24.70;99.90
8676;DHT22;4375;52.486;13.424;2023-07-02T10:19:19;24.40;99.90
8676;DHT22;4375;52.486;13.424;2023-07-02T10:21:45;24.80;99.90
8676;DHT22;4375;52.486;13.424;2023-07-02T10:24:16;25.20;99.90
8676;DHT22;4375;52.486;13.424;2023-07-02T10:26:56;24.80;99.90
8676;DHT22;4375;52.486;13.424;2023-07-02T10:29:25;25.30;99.90
8676;DHT22;4375;52.486;13.424;2023-07-02T10:31:52;24.60;99.90
8676;DHT22;4375;52.486;13.424;2023-07-02T10:34:47;23.70;99.90
8676;DHT22;4375;52.486;13.424;2023-07-02T10:37:13;23.70;99.90
8676;DHT22;4375;52.486;13.424;2023-07-02T10:39:39;23.40;99.90
8676;DHT22;4375;52.486;13.424;2023-07-02T10:44:31;23.40;99.90
8676;DHT22;4375;52.486;13.424;2023-07-02T10:49:48;23.90;99.90
8676;DHT22;4375;52.486;13.424;2023-07-02T10:52:14;23.70;99.90
8676;DHT22;4375;52.486;13.424;2023-07-02T10:54:43;23.50;99.90
8676;DHT22;4375;52.486;13.424;2023-07-02T10:57:10;23.20;99.90
8676;DHT22;4375;52.486;13.424;2023-07-02T10:59:36;23.40;99.90
8676;DHT22;4375;52.486;13.424;2023-07-02T11:02:02;23.60;99.90
8676;DHT22;4375;52.486;13.424;2023-07-02T11:04:32;23.80;99.90
8676;DHT22;4375;52.486;13.424;2023-07-02T11:07:02;24.00;99.90
8676;DHT22;4375;52.486;13.424;2023-07-02T11:09:28;24.00;99.90
8676;DHT22;4375;52.486;13.424;2023-07-02T11:11:58;23.70;99.90
8676;DHT22;4375;52.486;13.424;2023-07-02T11:14:32;23.80;99.90
8676;DHT22;4375;52.486;13.424;2023-07-02T11:16:59;24.00;99.90
8676;DHT22;4375;52.486;13.424;2023-07-02T11:19:25;23.60;99.90
8676;DHT22;4375;52.486;13.424;2023-07-02T11:21:53;23.50;99.90
8676;DHT22;4375;52.486;13.424;2023-07-02T11:24:34;23.40;99.90
8676;DHT22;4375;52.486;13.424;2023-07-02T11:27:01;23.20;99.90
8676;DHT22;4375;52.486;13.424;2023-07-02T11:29:29;23.00;99.90
8676;DHT22;4375;52.486;13.424;2023-07-02T11:31:54;22.50;99.90
8676;DHT22;4375;52.486;13.424;2023-07-02T11:34:21;22.50;99.90
8676;DHT22;4375;52.486;13.424;2023-07-02T11:36:47;22.30;99.90
8676;DHT22;4375;52.486;13.424;2023-07-02T11:39:14;22.10;99.90
8676;DHT22;4375;52.486;13.424;2023-07-02T11:41:43;22.10;99.90
8676;DHT22;4375;52.486;13.424;2023-07-02T11:44:09;22.10;99.90
8676;DHT22;4375;52.486;13.424;2023-07-02T11:46:35;22.10;99.90
8676;DHT22;4375;52.486;13.424;2023-07-02T11:49:01;22.20;99.90
8676;DHT22;4375;52.486;13.424;2023-07-02T11:51:28;22.40;99.90
8676;DHT22;4375;52.486;13.424;2023-07-02T11:53:53;22.50;99.90
8676;DHT22;4375;52.486;13.424;2023-07-02T11:56:19;22.40;99.90
8676;DHT22;4375;52.486;13.424;2023-07-02T11:58:45;22.30;99.90
8676;DHT22;4375;52.486;13.424;2023-07-02T12:01:10;22.30;99.90
8676;DHT22;4375;52.486;13.424;2023-07-02T12:03:36;22.20;99.90
8676;DHT22;4375;52.486;13.424;2023-07-02T12:06:02;22.40;99.90
8676;DHT22;4375;52.486;13.424;2023-07-02T12:08:27;22.70;99.90
8676;DHT22;4375;52.486;13.424;2023-07-02T12:10:53;23.00;99.90
8676;DHT22;4375;52.486;13.424;2023-07-02T12:13:19;22.90;99.90
8676;DHT22;4375;52.486;13.424;2023-07-02T12:15:47;22.80;99.90
8676;DHT22;4375;52.486;13.424;2023-07-02T12:18:12;22.70;99.90
8676;DHT22;4375;52.486;13.424;2023-07-02T12:20:39;22.50;99.90
8676;DHT22;4375;52.486;13.424;2023-07-02T12:23:05;22.40;99.90
8676;DHT22;4375;52.486;13.424;2023-07-02T12:25:31;22.30;99.90
8676;DHT22;4375;52.486;13.424;2023-07-02T12:27:57;22.40;99.90
8676;DHT22;4375;52.486;13.424;2023-07-02T12:30:22;22.40;99.90
8676;DHT22;4375;52.486;13.424;2023-07-02T12:32:48;22.60;99.90
8676;DHT22;4375;52.486;13.424;2023-07-02T12:35:14;22.60;99.90
8676;DHT22;4375;52.486;13.424;2023-07-02T12:37:47;22.50;99.90
8676;DHT22;4375;52.486;13.424;2023-07-02T12:40:14;22.60;99.90
8676;DHT22;4375;52.486;13.424;2023-07-02T12:42:42;22.70;99.90
8676;DHT22;4375;52.486;13.424;2023-07-02T12:45:08;22.60;99.90
8676;DHT22;4375;52.486;13.424;2023-07-02T12:47:34;22.60;99.90
8676;DHT22;4375;52.486;13.424;2023-07-02T12:49:59;22.60;99.90
8676;DHT22;4375;52.486;13.424;2023-07-02T12:52:25;22.50;99.90
8676;DHT22;4375;52.486;13.424;2023-07-02T12:54:51;22.60;99.90
8676;DHT22;4375;52.486;13.424;2023-07-02T12:57:17;22.50;99.90
8676;DHT22;4375;52.486;13.424;2023-07-02T12:59:43;22.50;99.90
8676;DHT22;4375;52.486;13.424;2023-07-02T13:02:10;22.50;99.90
8676;DHT22;4375;52.486;13.424;2023-07-02T13:04:36;22.50;99.90
8676;DHT22;4375;52.486;13.424;2023-07-02T13:07:02;22.50;99.90
8676;DHT22;4375;52.486;13.424;2023-07-02T13:09:28;22.60;99.90
8676;DHT22;4375;52.486;13.424;2023-07-02T13:11:53;22.80;99.90
8676;DHT22;4375;52.486;13.424;2023-07-02T13:14:19;22.80;99.90
8676;DHT22;4375;52.486;13.424;2023-07-02T13:16:45;22.80;99.90
8676;DHT22;4375;52.486;13.424;2023-07-02T13:19:11;23.00;99.90
8676;DHT22;4375;52.486;13.424;2023-07-02T13:21:36;23.10;99.90
8676;DHT22;4375;52.486;13.424;2023-07-02T13:24:02;23.10;99.90
8676;DHT22;4375;52.486;13.424;2023-07-02T13:26:28;23.00;99.90
8676;DHT22;4375;52.486;13.424;2023-07-02T13:28:54;23.00;99.90
8676;DHT22;4375;52.486;13.424;2023-07-02T13:31:19;22.90;99.90
8676;DHT22;4375;52.486;13.424;2023-07-02T13:33:45;22.90;99.90
8676;DHT22;4375;52.486;13.424;2023-07-02T13:36:14;22.80;99.90
8676;DHT22;4375;52.486;13.424;2023-07-02T13:38:40;22.90;99.90
8676;DHT22;4375;52.486;13.424;2023-07-02T13:41:06;23.10;99.90
8676;DHT22;4375;52.486;13.424;2023-07-02T13:43:31;23.10;99.90
8676;DHT22;4375;52.486;13.424;2023-07-02T13:45:57;23.10;99.90
8676;DHT22;4375;52.486;13.424;2023-07-02T13:48:23;23.20;99.90
8676;DHT22;4375;52.486;13.424;2023-07-02T13:54:06;23.10;99.90
8676;DHT22;4375;52.486;13.424;2023-07-02T13:56:32;23.20;99.90
8676;DHT22;4375;52.486;13.424;2023-07-02T13:58:58;23.30;99.90
8676;DHT22;4375;52.486;13.424;2023-07-02T14:01:24;23.20;98.80
8676;DHT22;4375;52.486;13.424;2023-07-02T14:03:50;23.10;98.80
8676;DHT22;4375;52.486;13.424;2023-07-02T14:06:17;23.20;98.60
8676;DHT22;4375;52.486;13.424;2023-07-02T14:08:42;23.00;98.30
8676;DHT22;4375;52.486;13.424;2023-07-02T14:11:11;22.90;98.50
8676;DHT22;4375;52.486;13.424;2023-07-02T14:13:36;22.90;98.30
8676;DHT22;4375;52.486;13.424;2023-07-02T14:16:02;23.00;98.40
8676;DHT22;4375;52.486;13.424;2023-07-02T14:18:30;23.00;98.60
8676;DHT22;4375;52.486;13.424;2023-07-02T14:20:55;23.00;97.70
8676;DHT22;4375;52.486;13.424;2023-07-02T14:23:21;23.00;97.60
8676;DHT22;4375;52.486;13.424;2023-07-02T14:25:47;23.10;97.40
8676;DHT22;4375;52.486;13.424;2023-07-02T14:28:12;23.20;97.60
8676;DHT22;4375;52.486;13.424;2023-07-02T14:30:38;23.10;97.60
8676;DHT22;4375;52.486;13.424;2023-07-02T14:33:05;23.10;97.60
8676;DHT22;4375;52.486;13.424;2023-07-02T14:35:31;22.90;97.60
8676;DHT22;4375;52.486;13.424;2023-07-02T14:37:57;22.90;97.70
8676;DHT22;4375;52.486;13.424;2023-07-02T14:40:38;22.80;96.80
8676;DHT22;4375;52.486;13.424;2023-07-02T14:43:04;22.80;96.60
8676;DHT22;4375;52.486;13.424;2023-07-02T14:45:30;22.80;95.50
8676;DHT22;4375;52.486;13.424;2023-07-02T14:47:56;22.60;95.50
8676;DHT22;4375;52.486;13.424;2023-07-02T14:50:26;22.60;95.00
8676;DHT22;4375;52.486;13.424;2023-07-02T14:52:51;22.60;95.20
8676;DHT22;4375;52.486;13.424;2023-07-02T14:55:17;22.80;95.10
8676;DHT22;4375;52.486;13.424;2023-07-02T14:57:42;22.90;95.00
8676;DHT22;4375;52.486;13.424;2023-07-02T15:00:09;23.00;95.20
8676;DHT22;4375;52.486;13.424;2023-07-02T15:02:34;23.00;95.10
8676;DHT22;4375;52.486;13.424;2023-07-02T15:05:00;22.90;94.90
8676;DHT22;4375;52.486;13.424;2023-07-02T15:07:26;22.90;95.40
8676;DHT22;4375;52.486;13.424;2023-07-02T15:09:52;23.00;95.50
8676;DHT22;4375;52.486;13.424;2023-07-02T15:12:17;22.90;95.40
8676;DHT22;4375;52.486;13.424;2023-07-02T15:14:43;22.90;95.50
8676;DHT22;4375;52.486;13.424;2023-07-02T15:17:09;22.80;95.70
8676;DHT22;4375;52.486;13.424;2023-07-02T15:19:34;22.80;95.80
8676;DHT22;4375;52.486;13.424;2023-07-02T15:22:00;22.60;95.10
8676;DHT22;4375;52.486;13.424;2023-07-02T15:24:26;22.70;95.10
8676;DHT22;4375;52.486;13.424;2023-07-02T15:26:51;22.70;95.00
8676;DHT22;4375;52.486;13.424;2023-07-02T15:29:17;22.70;95.00
8676;DHT22;4375;52.486;13.424;2023-07-02T15:31:42;22.70;95.00
8676;DHT22;4375;52.486;13.424;2023-07-02T15:34:11;22.40;94.90
8676;DHT22;4375;52.486;13.424;2023-07-02T15:36:41;22.50;95.40
8676;DHT22;4375;52.486;13.424;2023-07-02T15:39:09;22.70;95.50
8676;DHT22;4375;52.486;13.424;2023-07-02T15:41:35;22.80;96.00
8676;DHT22;4375;52.486;13.424;2023-07-02T15:44:04;22.70;95.80
8676;DHT22;4375;52.486;13.424;2023-07-02T15:46:31;22.60;95.00
8676;DHT22;4375;52.486;13.424;2023-07-02T15:48:58;22.40;94.90
8676;DHT22;4375;52.486;13.424;2023-07-02T15:51:26;22.30;94.80
8676;DHT22;4375;52.486;13.424;2023-07-02T15:53:52;22.30;94.90
8676;DHT22;4375;52.486;13.424;2023-07-02T16:10:48;22.10;95.90